Time;durP1;ratioP1;P1;durP2;ratioP2;P2;SDS_P1;SDS_P2;PMS_P1;PMS_P2;Temp;Humidity;BMP_temperature;BMP_pressure;BME280_temperature;BME280_humidity;BME280_pressure;Samples;Min_cycle;Max_cycle;Signal;HPM_P1;HPM_P2
2023/01/29 00:10:24;;;;;;;3.22;1.70;;;;;;;16.22;58.31;103039.78;4903660;29;20048;-85
2023/01/29 00:13:17;;;;;;;2.58;1.58;;;;;;;16.21;57.92;103034.53;4878101;29;20045;-85
2023/01/29 03:54:56;;;;;;;1.85;1.10;;;;;;;16.54;54.18;102935.03;2684059;24;19924;-84
2023/01/29 03:57:52;;;;;;;3.70;1.10;;;;;;;16.56;54.11;102942.03;4864943;29;20088;-84
2023/01/29 04:00:59;;;;;;;1.50;0.90;;;;;;;16.56;53.75;102926.44;4865314;29;20102;-84
2023/01/29 05:01:43;;;;;;;1.23;1.10;;;;;;;16.59;53.59;102877.13;3965737;23;20061;-84
2023/01/29 05:04:43;;;;;;;2.15;1.17;;;;;;;16.59;53.48;102884.94;4866846;29;20137;-84
2023/01/29 05:14:02;;;;;;;1.13;0.85;;;;;;;16.62;53.44;102879.81;4883077;29;20071;-84
2023/01/29 05:16:42;;;;;;;1.45;1.10;;;;;;;16.61;53.56;102867.66;4881776;29;20044;-84
2023/01/29 05:19:31;;;;;;;;;;;;;;;;;;;;;
2023/01/29 05:25:44;;;;;;;1.27;0.88;;;;;;;16.63;53.17;102852.97;4883025;29;20040;-83
2023/01/29 05:43:47;;;;;;;1.30;0.90;;;;;;;16.66;52.72;102849.59;5216988;23;4402431;-84
2023/01/29 07:00:41;;;;;;;7.93;3.03;;;;;;;16.87;51.62;102792.06;4877369;29;20052;-83
2023/01/29 07:03:27;;;;;;;18.45;5.05;;;;;;;16.90;51.64;102794.75;4850046;29;20054;-81
2023/01/29 07:30:46;;;;;;;9.52;3.22;;;;;;;16.90;52.08;102794.75;4968928;24;20485;-82
2023/01/29 07:53:53;;;;;;;5.88;2.75;;;;;;;16.95;52.55;102771.47;5535224;24;20060;-81
2023/01/29 07:56:19;;;;;;;6.47;2.78;;;;;;;16.94;52.64;102768.00;4884439;29;20033;-79
2023/01/29 07:58:44;;;;;;;6.75;2.95;;;;;;;16.94;52.41;102760.19;4867216;29;20112;-80
2023/01/29 08:01:10;;;;;;;8.27;3.30;;;;;;;16.94;52.42;102751.47;4867501;29;20041;-80
2023/01/29 08:03:35;;;;;;;7.30;3.38;;;;;;;16.97;52.25;102747.25;4852996;29;20077;-81
2023/01/29 08:06:04;;;;;;;6.45;3.38;;;;;;;16.97;52.27;102749.84;4869567;29;20395;-81
2023/01/29 08:08:30;;;;;;;6.38;2.90;;;;;;;16.97;52.52;102743.78;4889354;29;20040;-82
2023/01/29 08:11:03;;;;;;;7.00;2.83;;;;;;;16.97;52.35;102755.03;4892919;29;20037;-81
2023/01/29 08:13:29;;;;;;;7.03;2.83;;;;;;;16.97;52.34;102755.03;4885372;29;20041;-81
2023/01/29 08:16:02;;;;;;;6.07;3.10;;;;;;;16.98;52.18;102753.31;4902964;29;20058;-81
2023/01/29 08:18:30;;;;;;;6.60;3.00;;;;;;;16.99;52.12;102752.50;4897573;29;20044;-81
2023/01/29 08:21:00;;;;;;;9.32;3.28;;;;;;;16.99;51.92;102753.38;4880816;29;20045;-80
2023/01/29 08:23:28;;;;;;;5.10;2.88;;;;;;;17.00;51.86;102755.09;4879524;29;20048;-80
2023/01/29 08:25:56;;;;;;;6.90;2.65;;;;;;;16.98;51.85;102749.00;4862186;29;20047;-80
2023/01/29 08:28:22;;;;;;;4.80;2.72;;;;;;;16.99;51.96;102753.38;4872643;29;20036;-80
2023/01/29 08:30:47;;;;;;;3.85;2.60;;;;;;;16.98;51.79;102738.59;4871731;29;20069;-80
2023/01/29 08:33:34;;;;;;;5.28;2.97;;;;;;;16.99;51.87;102740.34;4873849;29;20049;-81
2023/01/29 08:57:32;;;;;;;5.78;2.92;;;;;;;16.97;51.36;102739.44;5940309;23;21213;31
2023/01/29 09:07:24;;;;;;;9.35;3.42;;;;;;;17.09;51.55;102718.03;4849871;29;20128;-83
2023/01/29 10:58:49;;;;;;;2.15;1.15;;;;;;;16.87;54.01;102656.84;5002766;23;20033;-87
2023/01/29 12:24:29;;;;;;;4.78;1.10;;;;;;;17.11;53.14;102520.38;4964602;23;20049;-81
2023/01/29 12:26:59;;;;;;;;;;;;;;;17.19;52.72;102505.78;4868113;29;20055;-77
2023/01/29 12:29:37;;;;;;;5.78;1.10;;;;;;;17.24;52.79;102499.81;4866133;29;19912;-77
2023/01/29 12:32:35;;;;;;;7.55;1.20;;;;;;;17.26;52.63;102499.84;4871005;29;20038;-80
2023/01/29 12:35:22;;;;;;;12.07;1.52;;;;;;;17.22;52.78;102490.22;4854369;29;20034;-80
2023/01/29 12:37:57;;;;;;;7.57;1.65;;;;;;;17.15;53.24;102489.25;4859638;29;20041;-80
2023/01/29 12:40:28;;;;;;;9.43;1.52;;;;;;;17.12;53.24;102478.78;4855580;29;20136;-79
2023/01/29 12:43:01;;;;;;;9.25;1.42;;;;;;;17.09;53.48;102472.66;4855002;29;20029;-80
2023/01/29 12:45:28;;;;;;;4.07;1.40;;;;;;;17.07;53.16;102464.81;4855575;29;20067;-80
2023/01/29 12:48:13;;;;;;;7.38;1.33;;;;;;;17.05;53.47;102458.72;4856444;29;20041;-79
2023/01/29 12:50:39;;;;;;;4.82;1.30;;;;;;;17.05;53.66;102450.91;4858879;29;20102;-79
2023/01/29 12:53:27;;;;;;;5.70;1.20;;;;;;;17.03;53.70;102435.28;4840118;29;20041;-79
2023/01/29 12:56:22;;;;;;;2.90;1.23;;;;;;;17.03;53.99;102430.06;4848548;29;20060;-80
2023/01/29 12:58:51;;;;;;;5.35;1.10;;;;;;;17.01;54.04;102416.16;4820314;29;20067;-81
2023/01/29 13:01:32;;;;;;;4.53;1.23;;;;;;;17.02;54.45;102415.31;4864631;29;20029;-80
2023/01/29 13:04:39;;;;;;;3.72;1.35;;;;;;;17.03;54.38;102413.59;4878196;29;20048;-81
2023/01/29 13:07:14;;;;;;;6.22;1.17;;;;;;;17.05;54.27;102402.38;4862025;29;20113;-79
2023/01/29 13:09:47;;;;;;;7.72;1.33;;;;;;;17.21;55.27;102402.63;4862312;29;20021;-80
2023/01/29 13:12:16;;;;;;;4.32;1.23;;;;;;;17.16;54.87;102392.16;4866079;29;20064;-81
2023/01/29 13:14:51;;;;;;;8.55;1.58;;;;;;;17.17;55.08;102390.41;4881484;29;20033;-81
2023/01/29 13:17:34;;;;;;;4.82;0.98;;;;;;;17.17;55.79;102387.81;4864077;29;20076;-80
2023/01/29 13:20:29;;;;;;;3.43;1.50;;;;;;;17.18;55.61;102379.16;4864516;29;20037;-80
2023/01/29 13:23:03;;;;;;;6.88;2.10;;;;;;;17.18;56.46;102371.34;4863412;29;20045;-80
2023/01/29 13:25:28;;;;;;;4.78;1.20;;;;;;;17.18;55.74;102364.44;4864600;29;20532;-81
2023/01/29 13:27:54;;;;;;;4.50;1.50;;;;;;;17.19;56.13;102363.56;4864336;29;20182;-80
2023/01/29 13:30:31;;;;;;;6.15;1.50;;;;;;;17.21;55.98;102371.41;4857257;29;20041;-80
2023/01/29 13:33:07;;;;;;;4.82;1.30;;;;;;;17.20;55.92;102362.75;4859801;29;20037;-81
2023/01/29 13:35:37;;;;;;;4.90;1.40;;;;;;;17.20;56.17;102357.53;4855159;29;20445;-80
2023/01/29 13:38:04;;;;;;;4.13;1.40;;;;;;;17.22;56.51;102365.34;4853606;29;20030;-80
2023/01/29 13:40:33;;;;;;;2.20;1.25;;;;;;;17.22;56.33;102353.25;4852251;29;20089;-80
2023/01/29 13:43:01;;;;;;;4.72;1.52;;;;;;;17.23;56.34;102347.16;4851585;29;20113;-80
2023/01/29 13:45:43;;;;;;;2.58;1.35;;;;;;;17.25;56.57;102347.19;4851302;29;20072;-80
2023/01/29 13:48:35;;;;;;;5.13;1.70;;;;;;;17.21;56.55;102341.06;4851563;29;20045;-80
2023/01/29 13:51:14;;;;;;;2.90;1.40;;;;;;;17.25;57.10;102342.88;4851986;29;20033;-80
2023/01/29 13:53:41;;;;;;;4.03;1.42;;;;;;;17.24;56.70;102341.09;4853098;29;20052;-79
2023/01/29 13:56:31;;;;;;;5.93;2.10;;;;;;;17.25;57.23;102335.06;4852931;29;20038;-81
2023/01/29 13:58:57;;;;;;;2.97;1.48;;;;;;;17.26;56.96;102331.59;4852564;29;20098;-80
2023/01/29 14:02:01;;;;;;;1.85;1.30;;;;;;;17.26;56.71;102325.53;4852154;29;20025;-81
2023/01/29 14:04:29;;;;;;;3.70;1.65;;;;;;;17.25;57.08;102309.03;4761247;30;20039;-81
2023/01/29 14:07:01;;;;;;;3.67;1.60;;;;;;;17.27;57.53;102304.75;4837400;29;20525;-80
2023/01/29 14:09:36;;;;;;;2.10;1.50;;;;;;;17.29;56.92;102309.97;4867531;29;20501;-81
2023/01/29 14:12:21;;;;;;;3.47;1.65;;;;;;;17.30;57.33;102308.25;4850578;29;20515;-80
2023/01/29 14:14:47;;;;;;;3.08;1.80;;;;;;;17.31;56.99;102305.69;4849110;29;20485;-80
2023/01/29 14:17:18;;;;;;;2.60;1.48;;;;;;;17.31;57.32;102296.97;4849892;29;20045;-81
2023/01/29 14:19:58;;;;;;;2.53;1.42;;;;;;;17.32;57.39;102293.53;4851882;29;20045;-81
2023/01/29 14:22:27;;;;;;;2.42;1.30;;;;;;;17.31;57.67;102295.28;4851620;29;20034;-81
2023/01/29 14:25:06;;;;;;;2.85;1.50;;;;;;;17.31;57.25;102303.06;4860899;29;20045;-83
2023/01/29 14:27:38;;;;;;;6.60;1.50;;;;;;;17.31;57.63;102297.88;4871839;29;20052;-80
2023/01/29 14:30:08;;;;;;;5.03;2.13;;;;;;;17.31;57.53;102289.16;4866704;29;20450;-79
2023/01/29 14:32:38;;;;;;;3.55;1.60;;;;;;;17.28;57.73;102284.78;4850289;29;20042;-80
2023/01/29 14:35:17;;;;;;;2.75;1.60;;;;;;;17.30;57.61;102287.44;4865964;29;20041;-80
2023/01/29 14:37:47;;;;;;;2.95;1.55;;;;;;;17.30;57.61;102280.50;4849658;29;20041;-80
2023/01/29 14:40:22;;;;;;;2.20;1.40;;;;;;;17.29;57.57;102278.75;4849165;29;20094;-80
2023/01/29 14:43:20;;;;;;;2.28;1.48;;;;;;;17.30;57.58;102275.28;4866808;29;20041;-80
2023/01/29 14:45:50;;;;;;;3.00;1.77;;;;;;;17.28;57.49;102277.00;4855352;29;20053;-80
2023/01/29 14:51:44;;;;;;;3.10;1.60;;;;;;;17.27;57.52;102272.66;4884243;29;20082;-83
2023/01/29 14:54:39;;;;;;;3.00;1.50;;;;;;;17.28;57.96;102270.06;4880969;29;20017;-81
2023/01/29 14:57:09;;;;;;;;;;;;;;;17.30;57.98;102274.44;4858345;29;20064;-80
2023/01/29 15:00:04;;;;;;;4.45;1.92;;;;;;;17.28;57.37;102270.06;4865674;29;19920;-82
2023/01/29 15:02:42;;;;;;;6.28;1.70;;;;;;;17.29;57.91;102270.94;4867352;29;20029;-79
2023/01/29 15:05:17;;;;;;;2.60;1.70;;;;;;;17.30;58.15;102264.00;4847413;29;20511;-79
2023/01/29 15:07:57;;;;;;;3.72;1.67;;;;;;;17.30;57.89;102262.28;4847760;29;20442;-79
2023/01/29 15:10:36;;;;;;;2.90;1.83;;;;;;;17.30;57.62;102270.09;4847044;29;20039;-79
2023/01/29 15:13:17;;;;;;;2.13;1.60;;;;;;;17.31;57.78;102265.75;4846749;29;20033;-79
2023/01/29 15:15:50;;;;;;;2.45;1.65;;;;;;;17.30;57.67;102253.59;4847170;29;20037;-80
2023/01/29 15:18:22;;;;;;;2.60;1.50;;;;;;;17.30;57.78;102251.88;4847434;29;20065;-80
2023/01/29 15:20:47;;;;;;;3.92;1.77;;;;;;;17.31;57.53;102257.94;4863734;29;20065;-80
2023/01/29 15:23:32;;;;;;;4.43;1.63;;;;;;;17.30;57.70;102251.88;4831778;29;20476;-79
2023/01/29 15:26:03;;;;;;;3.97;1.60;;;;;;;17.30;57.46;102251.88;4846700;29;20100;-79
2023/01/29 15:28:31;;;;;;;3.85;1.90;;;;;;;17.30;57.93;102257.06;4846725;29;20042;-79
2023/01/29 15:31:00;;;;;;;3.53;1.55;;;;;;;17.30;57.80;102251.88;4847544;29;20034;-80
2023/01/29 15:33:27;;;;;;;2.33;1.50;;;;;;;17.31;57.67;102258.84;4864621;29;20040;-80
2023/01/29 15:35:58;;;;;;;2.40;1.52;;;;;;;17.31;57.62;102260.53;4848468;29;20040;-80
2023/01/29 15:38:25;;;;;;;3.00;1.65;;;;;;;17.32;57.79;102257.09;4847741;29;20085;-80
2023/01/29 15:40:58;;;;;;;3.75;1.70;;;;;;;17.30;57.69;102259.69;4848670;29;20029;-80
2023/01/29 15:43:43;;;;;;;1.88;1.40;;;;;;;17.31;57.70;102253.63;4848643;29;20044;-80
2023/01/29 15:46:25;;;;;;;3.90;1.60;;;;;;;17.31;57.63;102248.44;4847814;29;20099;-80
2023/01/29 15:48:53;;;;;;;2.53;1.50;;;;;;;17.31;57.75;102239.72;4851647;29;20041;-79
2023/01/29 15:51:21;;;;;;;5.85;1.63;;;;;;;17.32;57.46;102246.69;4854948;29;20029;-80
2023/01/29 15:53:53;;;;;;;2.17;1.42;;;;;;;17.32;57.38;102238.91;4856702;29;20044;-80
2023/01/29 15:56:26;;;;;;;3.88;1.83;;;;;;;17.32;57.57;102237.16;4855339;29;20040;-79
2023/01/29 15:58:54;;;;;;;2.67;1.70;;;;;;;17.33;57.54;102235.41;4854291;29;20525;-80
2023/01/29 16:01:20;;;;;;;2.55;1.60;;;;;;;17.32;57.55;102234.56;4836501;29;20044;-79
2023/01/29 16:03:49;;;;;;;3.72;1.83;;;;;;;17.33;57.40;102227.63;4835658;29;20389;-80
2023/01/29 16:06:15;;;;;;;3.45;1.80;;;;;;;17.33;57.57;102230.22;4855297;29;20037;-80
2023/01/29 16:08:42;;;;;;;2.25;1.42;;;;;;;17.33;57.38;102222.41;4840505;29;20405;-78
2023/01/29 16:11:11;;;;;;;3.15;1.60;;;;;;;17.32;57.14;102218.94;4853173;29;20045;-79
2023/01/29 16:13:41;;;;;;;2.78;1.60;;;;;;;17.33;57.56;102225.03;4837767;29;20488;-80
2023/01/29 16:16:26;;;;;;;3.58;1.95;;;;;;;17.33;57.41;102220.69;4869480;29;20038;-79
2023/01/29 16:18:54;;;;;;;2.97;1.63;;;;;;;17.33;57.64;102215.47;4853082;29;20037;-79
2023/01/29 16:21:43;;;;;;;2.83;1.60;;;;;;;17.33;57.54;102202.47;4837823;29;20042;-79
2023/01/29 16:24:12;;;;;;;2.70;1.58;;;;;;;17.34;57.53;102208.56;4850950;29;20462;-79
2023/01/29 16:26:43;;;;;;;3.03;1.80;;;;;;;17.35;57.42;102215.50;4849559;29;20401;-79
2023/01/29 16:29:12;;;;;;;3.00;1.85;;;;;;;17.34;57.15;102209.44;4849666;29;20072;-79
2023/01/29 16:31:39;;;;;;;3.22;1.73;;;;;;;17.34;57.71;102216.38;4851179;29;20194;-80
2023/01/29 16:34:35;;;;;;;3.58;1.95;;;;;;;17.35;57.34;102215.50;4843616;29;20037;-82
2023/01/29 16:37:16;;;;;;;3.20;1.88;;;;;;;17.35;57.44;102213.78;4868589;29;20042;-83
2023/01/29 17:10:58;;;;;;;2.03;1.70;;;;;;;17.38;57.26;102184.34;4091076;27;20037;-83
2023/01/29 17:14:28;;;;;;;2.75;1.90;;;;;;;17.37;57.15;102183.44;4837221;29;20034;-85
2023/01/29 17:21:20;;;;;;;2.47;1.83;;;;;;;17.37;57.18;102157.41;4795452;30;20057;-86
2023/01/29 17:28:11;;;;;;;3.35;1.85;;;;;;;17.39;57.09;102157.44;4795268;29;20069;-85
2023/01/29 17:38:07;;;;;;;3.15;1.83;;;;;;;17.41;56.84;102141.00;4795217;30;20027;-85
2023/01/29 17:41:31;;;;;;;3.80;2.13;;;;;;;17.41;57.13;102143.59;4741646;30;20049;-84
2023/01/29 18:01:40;;;;;;;2.78;1.80;;;;;;;17.32;57.46;102117.47;4777152;30;20123;-85
2023/01/29 18:07:39;;;;;;;4.50;2.15;;;;;;;17.28;57.57;102116.56;4788210;30;20043;-84
2023/01/29 18:10:23;;;;;;;3.73;2.00;;;;;;;17.28;57.54;102113.09;4793098;30;20024;-84
2023/01/29 18:16:44;;;;;;;3.30;1.98;;;;;;;17.29;57.35;102094.03;4793875;30;19935;-84
2023/01/29 18:29:42;;;;;;;5.63;2.30;;;;;;;17.26;57.75;102048.00;4800982;29;20082;-85
2023/01/29 18:32:33;;;;;;;3.83;2.00;;;;;;;17.26;57.84;102036.75;4774778;30;20092;-82
2023/01/29 18:35:20;;;;;;;6.00;2.20;;;;;;;17.26;57.93;102027.22;4813062;29;20065;-82
2023/01/29 18:37:56;;;;;;;3.30;2.40;;;;;;;17.25;57.86;102028.06;4823270;29;20047;-82
2023/01/29 19:27:35;;;;;;;7.35;2.65;;;;;;;17.25;59.02;102024.59;3032000;27;20053;-79
2023/01/29 19:30:01;;;;;;;7.50;2.75;;;;;;;17.26;59.14;102028.94;4866956;29;20050;-80
2023/01/29 19:32:27;;;;;;;5.38;2.67;;;;;;;17.25;58.86;102028.06;4851575;29;20042;-79
2023/01/29 19:34:56;;;;;;;5.55;2.60;;;;;;;17.22;59.09;102025.47;4860097;29;20068;-81
2023/01/29 19:37:39;;;;;;;5.68;2.58;;;;;;;17.25;59.30;102029.81;4858190;29;20074;-80
2023/01/29 19:40:19;;;;;;;7.28;2.78;;;;;;;17.25;59.59;102017.66;4863349;29;20041;-80
2023/01/29 19:42:47;;;;;;;12.10;2.88;;;;;;;17.24;59.40;102013.31;4858512;29;20046;-82
2023/01/29 19:45:24;;;;;;;8.07;2.83;;;;;;;17.25;59.85;102006.41;4858992;29;20041;-80
2023/01/29 19:47:50;;;;;;;8.68;2.80;;;;;;;17.26;59.45;102009.00;4836271;29;20401;-80
2023/01/29 19:50:18;;;;;;;12.60;3.53;;;;;;;17.25;59.45;102004.66;4849223;29;20068;-80
2023/01/29 19:53:05;;;;;;;12.25;3.05;;;;;;;17.28;59.98;102014.22;4859086;29;20038;-82
2023/01/29 19:55:59;;;;;;;8.70;3.30;;;;;;;17.27;60.14;102000.34;4876315;29;20093;-82
2023/01/29 22:20:43;;;;;;;4.85;2.05;;;;;;;17.02;59.79;101842.31;5421703;24;20080;-84
2023/01/29 22:23:31;;;;;;;5.05;2.20;;;;;;;16.94;59.83;101829.25;4862435;29;20069;-80
2023/01/29 22:26:05;;;;;;;5.03;2.60;;;;;;;16.90;59.89;101817.06;4870369;29;20124;-81
2023/01/29 22:28:31;;;;;;;6.35;2.45;;;;;;;16.89;59.65;101814.47;4872699;29;20040;-80
2023/01/29 22:31:12;;;;;;;5.45;2.30;;;;;;;16.89;59.72;101791.06;4859465;29;20112;-82
2023/01/29 22:33:39;;;;;;;6.25;2.80;;;;;;;16.87;59.95;101806.63;4900304;29;20057;-82
2023/01/29 22:36:25;;;;;;;5.07;2.60;;;;;;;16.85;59.56;101804.03;4870224;29;20068;-83
2023/01/29 22:39:09;;;;;;;4.60;2.55;;;;;;;16.85;59.59;101801.44;4893527;29;20033;-82
2023/01/29 22:52:52;;;;;;;6.75;2.50;;;;;;;16.83;59.53;101805.75;4828545;29;20098;-83
2023/01/29 23:08:34;;;;;;;4.00;2.53;;;;;;;16.78;59.70;101807.38;4744771;30;20095;-83
2023/01/29 23:11:22;;;;;;;5.75;2.50;;;;;;;16.76;59.84;101796.09;4785806;30;20058;-83
2023/01/29 23:17:38;;;;;;;5.60;2.67;;;;;;;16.76;59.37;101764.91;4828469;29;20139;-83
2023/01/29 23:20:30;;;;;;;4.90;2.10;;;;;;;16.76;59.38;101764.06;4828740;29;20087;-83
2023/01/29 23:23:33;;;;;;;;;;;;;;;;;;;;;
2023/01/29 23:29:11;;;;;;;3.67;2.17;;;;;;;16.77;59.11;101768.41;4795136;30;20057;-83
2023/01/29 23:52:04;;;;;;;4.35;2.20;;;;;;;16.72;59.01;101750.16;4807527;30;20142;-83
2023/01/29 23:57:10;;;;;;;5.20;2.20;;;;;;;16.72;59.10;101736.28;4876826;29;20054;-83
